Terminal Aerodrome Forecast
Issued by NWS

Home | Current Version | Previous Version | Text Only | Print | Product List | Glossary On
Versions: 1 2 3 4 5 6 7 8 9 10 11 12 13 14 15 16 17 18 19 20 21 22 23 24
675
FTUS44 KBMX 261727
TAFMGM
TAF
KMGM 261727Z 2618/2718 14006KT P6SM TSRA BKN035CB
     FM270000 12006KT P6SM SCT080 OVC250
     FM270400 10003KT 4SM BR BKN035
     FM270800 08003KT 2SM BR BKN002
     FM271000 06004KT 4SM BR BKN025
     FM271200 07008KT P6SM VCSH BKN035=

USA.gov is the U.S. government's official web portal to all federal, state and local government web resources and services.